sensor_id;sensor_type;location;lat;lon;timestamp;P1;durP1;ratioP1;P2;durP2;ratioP2
77168;SDS011;66281;45.114;20.730;2023-03-15T00:08:08;6.60;;;3.22;;
77168;SDS011;66281;45.114;20.730;2023-03-15T00:18:08;10.15;;;3.83;;
77168;SDS011;66281;45.114;20.730;2023-03-15T00:28:09;7.05;;;3.65;;
77168;SDS011;66281;45.114;20.730;2023-03-15T00:38:10;7.10;;;3.50;;
77168;SDS011;66281;45.114;20.730;2023-03-15T00:48:12;9.07;;;4.65;;
77168;SDS011;66281;45.114;20.730;2023-03-15T00:58:12;6.97;;;3.33;;
77168;SDS011;66281;45.114;20.730;2023-03-15T01:08:12;9.50;;;5.00;;
77168;SDS011;66281;45.114;20.730;2023-03-15T01:18:13;6.72;;;3.30;;
77168;SDS011;66281;45.114;20.730;2023-03-15T01:28:14;6.10;;;3.27;;
77168;SDS011;66281;45.114;20.730;2023-03-15T01:38:15;7.47;;;4.43;;
77168;SDS011;66281;45.114;20.730;2023-03-15T01:48:17;9.13;;;4.63;;
77168;SDS011;66281;45.114;20.730;2023-03-15T01:58:20;6.93;;;3.50;;
77168;SDS011;66281;45.114;20.730;2023-03-15T02:08:25;8.53;;;4.23;;
77168;SDS011;66281;45.114;20.730;2023-03-15T02:18:26;7.40;;;3.90;;
77168;SDS011;66281;45.114;20.730;2023-03-15T02:28:27;6.60;;;3.85;;
77168;SDS011;66281;45.114;20.730;2023-03-15T02:38:28;6.87;;;4.40;;
77168;SDS011;66281;45.114;20.730;2023-03-15T02:48:29;8.30;;;3.53;;
77168;SDS011;66281;45.114;20.730;2023-03-15T02:58:31;5.40;;;3.37;;
77168;SDS011;66281;45.114;20.730;2023-03-15T03:08:34;7.00;;;3.50;;
77168;SDS011;66281;45.114;20.730;2023-03-15T03:18:35;6.73;;;3.20;;
77168;SDS011;66281;45.114;20.730;2023-03-15T03:28:38;6.07;;;3.40;;
77168;SDS011;66281;45.114;20.730;2023-03-15T03:38:43;5.95;;;3.53;;
77168;SDS011;66281;45.114;20.730;2023-03-15T03:48:44;6.20;;;3.33;;
77168;SDS011;66281;45.114;20.730;2023-03-15T03:58:45;6.50;;;3.57;;
77168;SDS011;66281;45.114;20.730;2023-03-15T04:08:50;9.67;;;4.37;;
77168;SDS011;66281;45.114;20.730;2023-03-15T04:18:57;9.82;;;5.50;;
77168;SDS011;66281;45.114;20.730;2023-03-15T04:28:58;11.30;;;5.77;;
77168;SDS011;66281;45.114;20.730;2023-03-15T04:39:22;12.90;;;6.17;;
77168;SDS011;66281;45.114;20.730;2023-03-15T04:49:41;23.67;;;7.20;;
77168;SDS011;66281;45.114;20.730;2023-03-15T04:59:56;10.93;;;5.57;;
77168;SDS011;66281;45.114;20.730;2023-03-15T05:10:09;10.13;;;5.77;;
77168;SDS011;66281;45.114;20.730;2023-03-15T05:20:10;10.20;;;4.93;;
77168;SDS011;66281;45.114;20.730;2023-03-15T05:30:40;18.10;;;9.93;;
77168;SDS011;66281;45.114;20.730;2023-03-15T05:41:01;9.80;;;6.00;;
77168;SDS011;66281;45.114;20.730;2023-03-15T05:51:28;9.80;;;5.17;;
77168;SDS011;66281;45.114;20.730;2023-03-15T06:01:46;9.07;;;6.40;;
77168;SDS011;66281;45.114;20.730;2023-03-15T06:11:56;9.85;;;5.68;;
77168;SDS011;66281;45.114;20.730;2023-03-15T06:21:57;15.80;;;8.30;;
77168;SDS011;66281;45.114;20.730;2023-03-15T06:32:10;14.80;;;8.77;;
77168;SDS011;66281;45.114;20.730;2023-03-15T06:42:14;40.00;;;21.10;;
77168;SDS011;66281;45.114;20.730;2023-03-15T06:52:15;21.00;;;11.10;;
77168;SDS011;66281;45.114;20.730;2023-03-15T07:02:16;10.32;;;6.13;;
77168;SDS011;66281;45.114;20.730;2023-03-15T07:12:17;15.80;;;7.70;;
77168;SDS011;66281;45.114;20.730;2023-03-15T07:22:18;11.15;;;6.15;;
77168;SDS011;66281;45.114;20.730;2023-03-15T07:32:18;12.93;;;6.53;;
77168;SDS011;66281;45.114;20.730;2023-03-15T07:42:19;13.82;;;8.68;;
77168;SDS011;66281;45.114;20.730;2023-03-15T07:52:24;16.00;;;8.97;;
77168;SDS011;66281;45.114;20.730;2023-03-15T08:02:25;16.42;;;9.23;;
77168;SDS011;66281;45.114;20.730;2023-03-15T08:12:26;20.73;;;12.00;;
77168;SDS011;66281;45.114;20.730;2023-03-15T08:22:26;15.93;;;9.00;;
77168;SDS011;66281;45.114;20.730;2023-03-15T08:32:27;27.90;;;14.65;;
77168;SDS011;66281;45.114;20.730;2023-03-15T08:42:27;15.27;;;9.05;;
77168;SDS011;66281;45.114;20.730;2023-03-15T08:52:28;14.43;;;8.27;;
77168;SDS011;66281;45.114;20.730;2023-03-15T09:02:28;11.85;;;7.18;;
77168;SDS011;66281;45.114;20.730;2023-03-15T09:12:29;12.88;;;8.70;;
77168;SDS011;66281;45.114;20.730;2023-03-15T09:22:31;11.83;;;7.23;;
77168;SDS011;66281;45.114;20.730;2023-03-15T09:32:31;11.38;;;7.70;;
77168;SDS011;66281;45.114;20.730;2023-03-15T09:53:32;23.93;;;13.47;;
77168;SDS011;66281;45.114;20.730;2023-03-15T10:03:21;17.58;;;8.52;;
77168;SDS011;66281;45.114;20.730;2023-03-15T10:13:31;18.97;;;11.20;;
77168;SDS011;66281;45.114;20.730;2023-03-15T10:24:16;25.00;;;11.80;;
77168;SDS011;66281;45.114;20.730;2023-03-15T10:34:30;28.33;;;15.98;;
77168;SDS011;66281;45.114;20.730;2023-03-15T10:44:31;14.47;;;8.93;;
77168;SDS011;66281;45.114;20.730;2023-03-15T10:54:35;12.27;;;7.50;;
77168;SDS011;66281;45.114;20.730;2023-03-15T11:04:43;17.33;;;9.30;;
77168;SDS011;66281;45.114;20.730;2023-03-15T11:15:20;8.05;;;6.43;;
77168;SDS011;66281;45.114;20.730;2023-03-15T11:25:20;12.67;;;7.07;;
77168;SDS011;66281;45.114;20.730;2023-03-15T11:35:23;8.53;;;6.37;;
77168;SDS011;66281;45.114;20.730;2023-03-15T11:45:35;7.72;;;5.85;;
77168;SDS011;66281;45.114;20.730;2023-03-15T11:56:07;9.87;;;5.87;;
77168;SDS011;66281;45.114;20.730;2023-03-15T12:06:59;8.73;;;5.87;;
77168;SDS011;66281;45.114;20.730;2023-03-15T12:16:55;10.57;;;5.82;;
77168;SDS011;66281;45.114;20.730;2023-03-15T12:27:17;11.73;;;6.83;;
77168;SDS011;66281;45.114;20.730;2023-03-15T12:37:41;10.27;;;6.43;;
77168;SDS011;66281;45.114;20.730;2023-03-15T12:57:51;15.38;;;8.35;;
77168;SDS011;66281;45.114;20.730;2023-03-15T13:18:12;13.50;;;9.67;;
77168;SDS011;66281;45.114;20.730;2023-03-15T13:38:28;17.00;;;9.87;;
77168;SDS011;66281;45.114;20.730;2023-03-15T13:48:30;33.67;;;13.57;;
77168;SDS011;66281;45.114;20.730;2023-03-15T13:58:32;25.33;;;13.43;;
77168;SDS011;66281;45.114;20.730;2023-03-15T14:08:36;21.20;;;11.13;;
77168;SDS011;66281;45.114;20.730;2023-03-15T14:18:38;15.95;;;8.82;;
77168;SDS011;66281;45.114;20.730;2023-03-15T14:28:39;23.80;;;12.83;;
77168;SDS011;66281;45.114;20.730;2023-03-15T14:38:40;16.17;;;8.97;;
77168;SDS011;66281;45.114;20.730;2023-03-15T14:48:50;14.07;;;9.05;;
77168;SDS011;66281;45.114;20.730;2023-03-15T14:58:50;14.77;;;7.70;;
77168;SDS011;66281;45.114;20.730;2023-03-15T15:08:52;17.13;;;9.00;;
77168;SDS011;66281;45.114;20.730;2023-03-15T15:18:56;14.57;;;8.50;;
77168;SDS011;66281;45.114;20.730;2023-03-15T15:28:56;21.17;;;10.25;;
77168;SDS011;66281;45.114;20.730;2023-03-15T15:38:57;30.87;;;14.50;;
77168;SDS011;66281;45.114;20.730;2023-03-15T15:48:57;22.27;;;13.53;;
77168;SDS011;66281;45.114;20.730;2023-03-15T15:58:59;15.30;;;8.70;;
77168;SDS011;66281;45.114;20.730;2023-03-15T16:09:00;16.92;;;9.10;;
77168;SDS011;66281;45.114;20.730;2023-03-15T16:19:02;22.10;;;10.87;;
77168;SDS011;66281;45.114;20.730;2023-03-15T16:29:07;16.35;;;7.78;;
77168;SDS011;66281;45.114;20.730;2023-03-15T16:39:13;27.13;;;10.90;;
77168;SDS011;66281;45.114;20.730;2023-03-15T16:49:14;11.38;;;6.20;;
77168;SDS011;66281;45.114;20.730;2023-03-15T16:59:15;13.33;;;7.50;;
77168;SDS011;66281;45.114;20.730;2023-03-15T17:09:17;13.55;;;6.82;;
77168;SDS011;66281;45.114;20.730;2023-03-15T17:19:19;9.47;;;5.43;;
77168;SDS011;66281;45.114;20.730;2023-03-15T17:29:20;20.95;;;9.32;;
77168;SDS011;66281;45.114;20.730;2023-03-15T17:39:20;13.52;;;7.30;;
77168;SDS011;66281;45.114;20.730;2023-03-15T17:49:23;12.60;;;5.78;;
77168;SDS011;66281;45.114;20.730;2023-03-15T17:59:24;8.87;;;3.70;;
77168;SDS011;66281;45.114;20.730;2023-03-15T18:09:24;5.90;;;3.25;;
77168;SDS011;66281;45.114;20.730;2023-03-15T18:19:25;8.10;;;5.15;;
77168;SDS011;66281;45.114;20.730;2023-03-15T18:29:26;6.13;;;3.78;;
77168;SDS011;66281;45.114;20.730;2023-03-15T18:39:26;9.07;;;4.27;;
77168;SDS011;66281;45.114;20.730;2023-03-15T18:49:27;14.73;;;7.35;;
77168;SDS011;66281;45.114;20.730;2023-03-15T18:59:27;15.93;;;8.35;;
77168;SDS011;66281;45.114;20.730;2023-03-15T19:09:28;8.90;;;5.70;;
77168;SDS011;66281;45.114;20.730;2023-03-15T19:19:28;9.82;;;5.72;;
77168;SDS011;66281;45.114;20.730;2023-03-15T19:29:29;10.05;;;4.75;;
77168;SDS011;66281;45.114;20.730;2023-03-15T19:39:29;9.82;;;5.70;;
77168;SDS011;66281;45.114;20.730;2023-03-15T19:49:30;9.68;;;5.72;;
77168;SDS011;66281;45.114;20.730;2023-03-15T19:59:30;10.07;;;4.73;;
77168;SDS011;66281;45.114;20.730;2023-03-15T20:09:31;15.13;;;7.70;;
77168;SDS011;66281;45.114;20.730;2023-03-15T20:19:32;11.13;;;5.93;;
77168;SDS011;66281;45.114;20.730;2023-03-15T20:29:32;14.77;;;7.17;;
77168;SDS011;66281;45.114;20.730;2023-03-15T20:39:33;10.10;;;5.50;;
77168;SDS011;66281;45.114;20.730;2023-03-15T20:49:34;24.23;;;10.60;;
77168;SDS011;66281;45.114;20.730;2023-03-15T20:59:34;21.83;;;11.57;;
77168;SDS011;66281;45.114;20.730;2023-03-15T21:09:35;19.25;;;10.23;;
77168;SDS011;66281;45.114;20.730;2023-03-15T21:19:35;12.17;;;6.67;;
77168;SDS011;66281;45.114;20.730;2023-03-15T21:29:36;9.48;;;5.55;;
77168;SDS011;66281;45.114;20.730;2023-03-15T21:39:37;9.17;;;6.07;;
77168;SDS011;66281;45.114;20.730;2023-03-15T21:49:38;7.28;;;3.40;;
77168;SDS011;66281;45.114;20.730;2023-03-15T21:59:38;8.40;;;4.25;;
77168;SDS011;66281;45.114;20.730;2023-03-15T22:09:39;11.63;;;5.10;;
77168;SDS011;66281;45.114;20.730;2023-03-15T22:19:40;7.25;;;3.92;;
77168;SDS011;66281;45.114;20.730;2023-03-15T22:29:40;9.40;;;4.03;;
77168;SDS011;66281;45.114;20.730;2023-03-15T22:39:40;8.43;;;4.82;;
77168;SDS011;66281;45.114;20.730;2023-03-15T22:49:41;6.50;;;3.95;;
77168;SDS011;66281;45.114;20.730;2023-03-15T22:59:42;8.18;;;4.32;;
77168;SDS011;66281;45.114;20.730;2023-03-15T23:09:43;6.43;;;3.90;;
77168;SDS011;66281;45.114;20.730;2023-03-15T23:19:43;9.50;;;4.93;;
77168;SDS011;66281;45.114;20.730;2023-03-15T23:29:44;10.52;;;5.78;;
77168;SDS011;66281;45.114;20.730;2023-03-15T23:39:44;21.38;;;7.50;;
77168;SDS011;66281;45.114;20.730;2023-03-15T23:49:45;11.70;;;6.45;;
77168;SDS011;66281;45.114;20.730;2023-03-15T23:59:46;8.65;;;4.35;;
